sensor_id;sensor_type;location;lat;lon;timestamp;pressure;altitude;pressure_sealevel;temperature;humidity
48404;BME280;34202;52.536;6.042;2024-01-30T00:02:06;102709.73;;;6.26;100.00
48404;BME280;34202;52.536;6.042;2024-01-30T00:07:07;102706.73;;;6.22;100.00
48404;BME280;34202;52.536;6.042;2024-01-30T00:12:08;102700.67;;;6.15;100.00
48404;BME280;34202;52.536;6.042;2024-01-30T00:17:08;102701.63;;;6.10;100.00
48404;BME280;34202;52.536;6.042;2024-01-30T00:22:09;102706.95;;;6.07;100.00
48404;BME280;34202;52.536;6.042;2024-01-30T00:27:09;102710.35;;;6.03;100.00
48404;BME280;34202;52.536;6.042;2024-01-30T00:32:10;102704.59;;;5.98;100.00
48404;BME280;34202;52.536;6.042;2024-01-30T00:37:10;102704.67;;;5.94;100.00
48404;BME280;34202;52.536;6.042;2024-01-30T00:42:11;102703.52;;;5.88;100.00
48404;BME280;34202;52.536;6.042;2024-01-30T00:47:12;102698.11;;;5.85;100.00
48404;BME280;34202;52.536;6.042;2024-01-30T00:52:12;102690.39;;;5.79;100.00
48404;BME280;34202;52.536;6.042;2024-01-30T00:57:12;102692.58;;;5.75;100.00
48404;BME280;34202;52.536;6.042;2024-01-30T01:02:13;102694.77;;;5.71;100.00
48404;BME280;34202;52.536;6.042;2024-01-30T01:07:15;102693.63;;;5.69;100.00
48404;BME280;34202;52.536;6.042;2024-01-30T01:12:15;102688.39;;;5.66;100.00
48404;BME280;34202;52.536;6.042;2024-01-30T01:17:16;102684.08;;;5.62;100.00
48404;BME280;34202;52.536;6.042;2024-01-30T01:22:16;102682.99;;;5.58;100.00
48404;BME280;34202;52.536;6.042;2024-01-30T01:27:18;102675.52;;;5.54;100.00
48404;BME280;34202;52.536;6.042;2024-01-30T01:32:19;102674.64;;;5.51;100.00
48404;BME280;34202;52.536;6.042;2024-01-30T01:37:19;102674.23;;;5.47;100.00
48404;BME280;34202;52.536;6.042;2024-01-30T01:42:22;102671.83;;;5.44;100.00
48404;BME280;34202;52.536;6.042;2024-01-30T01:47:22;102665.73;;;5.43;100.00
48404;BME280;34202;52.536;6.042;2024-01-30T01:52:23;102660.82;;;5.42;100.00
48404;BME280;34202;52.536;6.042;2024-01-30T01:57:24;102667.02;;;5.41;100.00
48404;BME280;34202;52.536;6.042;2024-01-30T02:02:25;102659.09;;;5.38;100.00
48404;BME280;34202;52.536;6.042;2024-01-30T02:07:27;102658.55;;;5.35;100.00
48404;BME280;34202;52.536;6.042;2024-01-30T02:12:28;102659.23;;;5.32;100.00
48404;BME280;34202;52.536;6.042;2024-01-30T02:17:29;102650.36;;;5.31;100.00
48404;BME280;34202;52.536;6.042;2024-01-30T02:22:32;102643.92;;;5.30;100.00
48404;BME280;34202;52.536;6.042;2024-01-30T02:27:34;102639.02;;;5.29;100.00
48404;BME280;34202;52.536;6.042;2024-01-30T02:32:34;102636.04;;;5.28;100.00
48404;BME280;34202;52.536;6.042;2024-01-30T02:37:35;102640.55;;;5.26;100.00
48404;BME280;34202;52.536;6.042;2024-01-30T02:42:35;102635.55;;;5.22;100.00
48404;BME280;34202;52.536;6.042;2024-01-30T02:47:36;102634.61;;;5.21;100.00
48404;BME280;34202;52.536;6.042;2024-01-30T02:52:36;102631.96;;;5.20;100.00
48404;BME280;34202;52.536;6.042;2024-01-30T02:57:37;102634.16;;;5.19;100.00
48404;BME280;34202;52.536;6.042;2024-01-30T03:02:37;102629.94;;;5.18;100.00
48404;BME280;34202;52.536;6.042;2024-01-30T03:07:38;102627.77;;;5.16;100.00
48404;BME280;34202;52.536;6.042;2024-01-30T03:12:38;102620.17;;;5.13;100.00
48404;BME280;34202;52.536;6.042;2024-01-30T03:17:39;102618.34;;;5.11;100.00
48404;BME280;34202;52.536;6.042;2024-01-30T03:22:39;102605.98;;;5.10;100.00
48404;BME280;34202;52.536;6.042;2024-01-30T03:27:39;102591.52;;;5.10;100.00
48404;BME280;34202;52.536;6.042;2024-01-30T03:32:40;102591.72;;;5.11;100.00
48404;BME280;34202;52.536;6.042;2024-01-30T03:37:40;102580.46;;;5.13;100.00
48404;BME280;34202;52.536;6.042;2024-01-30T03:42:41;102573.60;;;5.17;100.00
48404;BME280;34202;52.536;6.042;2024-01-30T03:47:43;102560.81;;;5.19;100.00
48404;BME280;34202;52.536;6.042;2024-01-30T03:52:43;102569.59;;;5.22;100.00
48404;BME280;34202;52.536;6.042;2024-01-30T03:57:44;102584.39;;;5.25;100.00
48404;BME280;34202;52.536;6.042;2024-01-30T04:02:44;102562.13;;;5.28;100.00
48404;BME280;34202;52.536;6.042;2024-01-30T04:07:45;102553.85;;;5.31;100.00
48404;BME280;34202;52.536;6.042;2024-01-30T04:12:45;102553.41;;;5.33;100.00
48404;BME280;34202;52.536;6.042;2024-01-30T04:17:46;102559.61;;;5.35;100.00
48404;BME280;34202;52.536;6.042;2024-01-30T04:22:46;102548.83;;;5.37;100.00
48404;BME280;34202;52.536;6.042;2024-01-30T04:27:47;102545.05;;;5.40;100.00
48404;BME280;34202;52.536;6.042;2024-01-30T04:32:48;102530.80;;;5.45;100.00
48404;BME280;34202;52.536;6.042;2024-01-30T04:37:48;102533.46;;;5.50;100.00
48404;BME280;34202;52.536;6.042;2024-01-30T04:42:49;102533.03;;;5.55;100.00
48404;BME280;34202;52.536;6.042;2024-01-30T04:47:49;102530.82;;;5.58;100.00
48404;BME280;34202;52.536;6.042;2024-01-30T04:52:50;102542.45;;;5.62;100.00
48404;BME280;34202;52.536;6.042;2024-01-30T04:57:51;102547.15;;;5.67;100.00
48404;BME280;34202;52.536;6.042;2024-01-30T05:02:51;102551.39;;;5.72;100.00
48404;BME280;34202;52.536;6.042;2024-01-30T05:07:51;102547.27;;;5.75;100.00
48404;BME280;34202;52.536;6.042;2024-01-30T05:12:52;102541.48;;;5.76;100.00
48404;BME280;34202;52.536;6.042;2024-01-30T05:17:52;102535.19;;;5.79;100.00
48404;BME280;34202;52.536;6.042;2024-01-30T05:22:53;102520.58;;;5.80;100.00
48404;BME280;34202;52.536;6.042;2024-01-30T05:27:53;102531.72;;;5.82;100.00
48404;BME280;34202;52.536;6.042;2024-01-30T05:32:55;102525.83;;;5.84;100.00
48404;BME280;34202;52.536;6.042;2024-01-30T05:37:56;102538.04;;;5.87;100.00
48404;BME280;34202;52.536;6.042;2024-01-30T05:42:57;102548.87;;;5.89;100.00
48404;BME280;34202;52.536;6.042;2024-01-30T05:48:01;102555.38;;;5.91;100.00
48404;BME280;34202;52.536;6.042;2024-01-30T05:53:02;102557.16;;;5.92;100.00
48404;BME280;34202;52.536;6.042;2024-01-30T05:58:03;102549.28;;;5.93;100.00
48404;BME280;34202;52.536;6.042;2024-01-30T06:03:04;102540.06;;;5.95;100.00
48404;BME280;34202;52.536;6.042;2024-01-30T06:08:05;102526.12;;;5.99;100.00
48404;BME280;34202;52.536;6.042;2024-01-30T06:13:05;102522.80;;;6.05;100.00
48404;BME280;34202;52.536;6.042;2024-01-30T06:18:06;102512.27;;;6.09;100.00
48404;BME280;34202;52.536;6.042;2024-01-30T06:23:06;102525.89;;;6.12;100.00
48404;BME280;34202;52.536;6.042;2024-01-30T06:28:07;102516.85;;;6.14;100.00
48404;BME280;34202;52.536;6.042;2024-01-30T06:33:07;102484.48;;;6.16;100.00
48404;BME280;34202;52.536;6.042;2024-01-30T06:38:08;102496.46;;;6.21;100.00
48404;BME280;34202;52.536;6.042;2024-01-30T06:43:09;102500.60;;;6.24;100.00
48404;BME280;34202;52.536;6.042;2024-01-30T06:48:10;102506.98;;;6.27;100.00
48404;BME280;34202;52.536;6.042;2024-01-30T06:53:10;102528.73;;;6.30;100.00
48404;BME280;34202;52.536;6.042;2024-01-30T06:58:10;102527.98;;;6.32;100.00
48404;BME280;34202;52.536;6.042;2024-01-30T07:03:11;102526.02;;;6.34;100.00
48404;BME280;34202;52.536;6.042;2024-01-30T07:08:11;102518.39;;;6.37;100.00
48404;BME280;34202;52.536;6.042;2024-01-30T07:13:12;102512.31;;;6.40;100.00
48404;BME280;34202;52.536;6.042;2024-01-30T07:18:12;102520.10;;;6.44;100.00
48404;BME280;34202;52.536;6.042;2024-01-30T07:23:13;102529.52;;;6.46;100.00
48404;BME280;34202;52.536;6.042;2024-01-30T07:28:17;102533.42;;;6.47;100.00
48404;BME280;34202;52.536;6.042;2024-01-30T07:33:17;102532.68;;;6.50;100.00
48404;BME280;34202;52.536;6.042;2024-01-30T07:38:18;102536.40;;;6.52;100.00
48404;BME280;34202;52.536;6.042;2024-01-30T07:43:19;102539.88;;;6.55;100.00
48404;BME280;34202;52.536;6.042;2024-01-30T07:48:20;102539.20;;;6.59;100.00
48404;BME280;34202;52.536;6.042;2024-01-30T07:53:21;102537.02;;;6.64;100.00
48404;BME280;34202;52.536;6.042;2024-01-30T07:58:21;102532.42;;;6.69;100.00
48404;BME280;34202;52.536;6.042;2024-01-30T08:03:24;102538.05;;;6.74;100.00
48404;BME280;34202;52.536;6.042;2024-01-30T08:08:24;102548.70;;;6.80;100.00
48404;BME280;34202;52.536;6.042;2024-01-30T08:13:27;102548.35;;;6.86;100.00
48404;BME280;34202;52.536;6.042;2024-01-30T08:18:27;102554.98;;;6.95;100.00
48404;BME280;34202;52.536;6.042;2024-01-30T08:23:28;102559.60;;;7.01;100.00
48404;BME280;34202;52.536;6.042;2024-01-30T08:28:28;102556.59;;;7.06;100.00
48404;BME280;34202;52.536;6.042;2024-01-30T08:33:29;102560.95;;;7.14;100.00
48404;BME280;34202;52.536;6.042;2024-01-30T08:38:29;102558.85;;;7.25;100.00
48404;BME280;34202;52.536;6.042;2024-01-30T08:43:30;102564.88;;;7.35;100.00
48404;BME280;34202;52.536;6.042;2024-01-30T08:48:30;102564.77;;;7.47;100.00
48404;BME280;34202;52.536;6.042;2024-01-30T08:53:31;102560.99;;;7.59;100.00
48404;BME280;34202;52.536;6.042;2024-01-30T08:58:31;102566.49;;;7.73;100.00
48404;BME280;34202;52.536;6.042;2024-01-30T09:03:32;102565.73;;;7.91;100.00
48404;BME280;34202;52.536;6.042;2024-01-30T09:08:32;102569.89;;;8.06;100.00
48404;BME280;34202;52.536;6.042;2024-01-30T09:13:32;102568.77;;;8.21;100.00
48404;BME280;34202;52.536;6.042;2024-01-30T09:18:33;102568.10;;;8.37;100.00
48404;BME280;34202;52.536;6.042;2024-01-30T09:23:33;102573.26;;;8.51;100.00
48404;BME280;34202;52.536;6.042;2024-01-30T09:28:34;102576.67;;;8.62;100.00
48404;BME280;34202;52.536;6.042;2024-01-30T09:33:35;102577.95;;;8.72;100.00
48404;BME280;34202;52.536;6.042;2024-01-30T09:38:36;102577.33;;;8.82;100.00
48404;BME280;34202;52.536;6.042;2024-01-30T09:43:37;102583.68;;;8.88;100.00
48404;BME280;34202;52.536;6.042;2024-01-30T09:48:41;102576.69;;;8.96;100.00
48404;BME280;34202;52.536;6.042;2024-01-30T09:53:42;102577.09;;;9.05;100.00
48404;BME280;34202;52.536;6.042;2024-01-30T09:58:46;102575.37;;;9.15;100.00
48404;BME280;34202;52.536;6.042;2024-01-30T10:03:46;102582.49;;;9.23;100.00
48404;BME280;34202;52.536;6.042;2024-01-30T10:08:47;102587.11;;;9.30;100.00
48404;BME280;34202;52.536;6.042;2024-01-30T10:13:47;102583.38;;;9.37;100.00
48404;BME280;34202;52.536;6.042;2024-01-30T10:18:47;102579.61;;;9.48;100.00
48404;BME280;34202;52.536;6.042;2024-01-30T10:23:49;102581.95;;;9.58;100.00
48404;BME280;34202;52.536;6.042;2024-01-30T10:28:50;102583.52;;;9.67;100.00
48404;BME280;34202;52.536;6.042;2024-01-30T10:33:51;102586.08;;;9.75;100.00
48404;BME280;34202;52.536;6.042;2024-01-30T10:38:52;102591.59;;;9.83;100.00
48404;BME280;34202;52.536;6.042;2024-01-30T10:44:03;102589.39;;;9.90;100.00
48404;BME280;34202;52.536;6.042;2024-01-30T10:49:05;102591.67;;;9.95;100.00
48404;BME280;34202;52.536;6.042;2024-01-30T10:54:06;102589.62;;;10.01;100.00
48404;BME280;34202;52.536;6.042;2024-01-30T10:59:07;102588.40;;;10.05;100.00
48404;BME280;34202;52.536;6.042;2024-01-30T11:04:08;102595.42;;;10.12;100.00
48404;BME280;34202;52.536;6.042;2024-01-30T11:09:11;102600.83;;;10.17;100.00
48404;BME280;34202;52.536;6.042;2024-01-30T11:14:12;102597.98;;;10.20;100.00
48404;BME280;34202;52.536;6.042;2024-01-30T11:19:13;102613.48;;;10.25;100.00
48404;BME280;34202;52.536;6.042;2024-01-30T11:24:14;102605.30;;;10.30;100.00
48404;BME280;34202;52.536;6.042;2024-01-30T11:29:14;102607.17;;;10.33;100.00
48404;BME280;34202;52.536;6.042;2024-01-30T11:34:15;102600.95;;;10.34;100.00
48404;BME280;34202;52.536;6.042;2024-01-30T11:39:17;102608.27;;;10.34;100.00
48404;BME280;34202;52.536;6.042;2024-01-30T11:44:18;102612.09;;;10.34;100.00
48404;BME280;34202;52.536;6.042;2024-01-30T11:49:20;102609.22;;;10.36;100.00
48404;BME280;34202;52.536;6.042;2024-01-30T11:54:21;102612.33;;;10.41;100.00
48404;BME280;34202;52.536;6.042;2024-01-30T11:59:22;102615.11;;;10.45;100.00
48404;BME280;34202;52.536;6.042;2024-01-30T12:04:22;102617.70;;;10.54;100.00
48404;BME280;34202;52.536;6.042;2024-01-30T12:09:23;102623.85;;;10.61;100.00
48404;BME280;34202;52.536;6.042;2024-01-30T12:14:23;102626.20;;;10.63;100.00
48404;BME280;34202;52.536;6.042;2024-01-30T12:19:25;102627.39;;;10.62;100.00
48404;BME280;34202;52.536;6.042;2024-01-30T12:24:27;102631.11;;;10.59;100.00
48404;BME280;34202;52.536;6.042;2024-01-30T12:29:32;102639.16;;;10.56;100.00
48404;BME280;34202;52.536;6.042;2024-01-30T12:34:32;102649.39;;;10.50;100.00
48404;BME280;34202;52.536;6.042;2024-01-30T12:39:33;102657.19;;;10.44;100.00
48404;BME280;34202;52.536;6.042;2024-01-30T12:44:34;102659.35;;;10.36;100.00
48404;BME280;34202;52.536;6.042;2024-01-30T12:49:34;102660.81;;;10.30;100.00
48404;BME280;34202;52.536;6.042;2024-01-30T12:54:34;102665.38;;;10.22;100.00
48404;BME280;34202;52.536;6.042;2024-01-30T12:59:35;102666.95;;;10.12;100.00
48404;BME280;34202;52.536;6.042;2024-01-30T13:04:36;102669.13;;;10.01;100.00
48404;BME280;34202;52.536;6.042;2024-01-30T13:09:36;102678.36;;;9.88;100.00
48404;BME280;34202;52.536;6.042;2024-01-30T13:14:38;102674.52;;;9.74;100.00
48404;BME280;34202;52.536;6.042;2024-01-30T13:19:38;102675.62;;;9.67;100.00
48404;BME280;34202;52.536;6.042;2024-01-30T13:24:38;102669.90;;;9.67;100.00
48404;BME280;34202;52.536;6.042;2024-01-30T13:29:39;102668.40;;;9.68;100.00
48404;BME280;34202;52.536;6.042;2024-01-30T13:34:40;102667.52;;;9.68;100.00
48404;BME280;34202;52.536;6.042;2024-01-30T13:39:41;102674.65;;;9.68;100.00
48404;BME280;34202;52.536;6.042;2024-01-30T13:44:41;102673.00;;;9.66;100.00
48404;BME280;34202;52.536;6.042;2024-01-30T13:49:44;102673.14;;;9.65;100.00
48404;BME280;34202;52.536;6.042;2024-01-30T13:54:44;102677.48;;;9.65;100.00
48404;BME280;34202;52.536;6.042;2024-01-30T13:59:44;102672.25;;;9.65;100.00
48404;BME280;34202;52.536;6.042;2024-01-30T14:04:45;102676.09;;;9.61;100.00
48404;BME280;34202;52.536;6.042;2024-01-30T14:09:45;102682.67;;;9.56;100.00
48404;BME280;34202;52.536;6.042;2024-01-30T14:14:46;102688.00;;;9.50;100.00
48404;BME280;34202;52.536;6.042;2024-01-30T14:19:46;102699.86;;;9.43;100.00
48404;BME280;34202;52.536;6.042;2024-01-30T14:24:47;102699.39;;;9.36;100.00
48404;BME280;34202;52.536;6.042;2024-01-30T14:29:47;102704.28;;;9.27;100.00
48404;BME280;34202;52.536;6.042;2024-01-30T14:34:47;102709.54;;;9.21;100.00
48404;BME280;34202;52.536;6.042;2024-01-30T14:39:48;102715.05;;;9.15;100.00
48404;BME280;34202;52.536;6.042;2024-01-30T14:44:49;102715.06;;;9.11;100.00
48404;BME280;34202;52.536;6.042;2024-01-30T14:49:49;102722.23;;;9.08;100.00
48404;BME280;34202;52.536;6.042;2024-01-30T14:54:50;102725.55;;;9.05;100.00
48404;BME280;34202;52.536;6.042;2024-01-30T14:59:51;102738.04;;;9.00;100.00
48404;BME280;34202;52.536;6.042;2024-01-30T15:04:51;102738.34;;;8.95;100.00
48404;BME280;34202;52.536;6.042;2024-01-30T15:09:52;102739.27;;;8.89;100.00
48404;BME280;34202;52.536;6.042;2024-01-30T15:14:52;102744.61;;;8.83;100.00
48404;BME280;34202;52.536;6.042;2024-01-30T15:19:53;102751.58;;;8.77;100.00
48404;BME280;34202;52.536;6.042;2024-01-30T15:24:53;102750.90;;;8.69;100.00
48404;BME280;34202;52.536;6.042;2024-01-30T15:29:54;102762.39;;;8.62;100.00
48404;BME280;34202;52.536;6.042;2024-01-30T15:34:54;102771.52;;;8.57;100.00
48404;BME280;34202;52.536;6.042;2024-01-30T15:39:56;102774.20;;;8.51;100.00
48404;BME280;34202;52.536;6.042;2024-01-30T15:44:57;102782.05;;;8.44;100.00
48404;BME280;34202;52.536;6.042;2024-01-30T15:49:58;102788.14;;;8.38;100.00
48404;BME280;34202;52.536;6.042;2024-01-30T15:54:59;102793.41;;;8.32;100.00
48404;BME280;34202;52.536;6.042;2024-01-30T15:59:59;102810.34;;;8.27;100.00
48404;BME280;34202;52.536;6.042;2024-01-30T16:05:00;102821.16;;;8.21;100.00
48404;BME280;34202;52.536;6.042;2024-01-30T16:10:02;102826.41;;;8.14;100.00
48404;BME280;34202;52.536;6.042;2024-01-30T16:15:03;102832.38;;;8.09;100.00
48404;BME280;34202;52.536;6.042;2024-01-30T16:20:04;102838.79;;;8.05;100.00
48404;BME280;34202;52.536;6.042;2024-01-30T16:25:05;102849.47;;;8.04;100.00
48404;BME280;34202;52.536;6.042;2024-01-30T16:30:06;102858.77;;;8.03;100.00
48404;BME280;34202;52.536;6.042;2024-01-30T16:35:07;102868.64;;;8.02;100.00
48404;BME280;34202;52.536;6.042;2024-01-30T16:40:08;102874.10;;;8.01;100.00
48404;BME280;34202;52.536;6.042;2024-01-30T16:45:08;102882.57;;;8.00;100.00
48404;BME280;34202;52.536;6.042;2024-01-30T16:50:09;102887.71;;;7.99;100.00
48404;BME280;34202;52.536;6.042;2024-01-30T16:55:10;102895.55;;;7.96;100.00
48404;BME280;34202;52.536;6.042;2024-01-30T17:00:11;102910.77;;;7.91;100.00
48404;BME280;34202;52.536;6.042;2024-01-30T17:05:12;102920.24;;;7.87;100.00
48404;BME280;34202;52.536;6.042;2024-01-30T17:10:12;102934.56;;;7.82;100.00
48404;BME280;34202;52.536;6.042;2024-01-30T17:15:16;102943.95;;;7.76;100.00
48404;BME280;34202;52.536;6.042;2024-01-30T17:20:17;102947.02;;;7.71;100.00
48404;BME280;34202;52.536;6.042;2024-01-30T17:25:17;102958.58;;;7.67;100.00
48404;BME280;34202;52.536;6.042;2024-01-30T17:30:21;102971.02;;;7.64;100.00
48404;BME280;34202;52.536;6.042;2024-01-30T17:35:23;102979.70;;;7.60;100.00
48404;BME280;34202;52.536;6.042;2024-01-30T17:40:24;102985.80;;;7.58;100.00
48404;BME280;34202;52.536;6.042;2024-01-30T17:45:24;103002.13;;;7.55;100.00
48404;BME280;34202;52.536;6.042;2024-01-30T17:50:25;103008.16;;;7.51;100.00
48404;BME280;34202;52.536;6.042;2024-01-30T17:55:26;103018.16;;;7.47;100.00
48404;BME280;34202;52.536;6.042;2024-01-30T18:00:26;103024.78;;;7.45;100.00
48404;BME280;34202;52.536;6.042;2024-01-30T18:05:27;103032.06;;;7.42;100.00
48404;BME280;34202;52.536;6.042;2024-01-30T18:10:27;103041.56;;;7.38;100.00
48404;BME280;34202;52.536;6.042;2024-01-30T18:15:28;103048.95;;;7.34;100.00
48404;BME280;34202;52.536;6.042;2024-01-30T18:20:28;103056.64;;;7.32;100.00
48404;BME280;34202;52.536;6.042;2024-01-30T18:25:29;103066.02;;;7.29;100.00
48404;BME280;34202;52.536;6.042;2024-01-30T18:30:29;103070.02;;;7.26;100.00
48404;BME280;34202;52.536;6.042;2024-01-30T18:35:30;103075.25;;;7.24;100.00
48404;BME280;34202;52.536;6.042;2024-01-30T18:40:31;103083.71;;;7.20;100.00
48404;BME280;34202;52.536;6.042;2024-01-30T18:45:31;103098.59;;;7.17;100.00
48404;BME280;34202;52.536;6.042;2024-01-30T18:50:31;103108.40;;;7.16;100.00
48404;BME280;34202;52.536;6.042;2024-01-30T18:55:32;103120.02;;;7.13;100.00
48404;BME280;34202;52.536;6.042;2024-01-30T19:00:33;103122.27;;;7.10;100.00
48404;BME280;34202;52.536;6.042;2024-01-30T19:05:36;103127.20;;;7.06;100.00
48404;BME280;34202;52.536;6.042;2024-01-30T19:10:36;103132.14;;;7.01;100.00
48404;BME280;34202;52.536;6.042;2024-01-30T19:15:37;103140.79;;;6.98;100.00
48404;BME280;34202;52.536;6.042;2024-01-30T19:20:37;103148.36;;;6.94;100.00
48404;BME280;34202;52.536;6.042;2024-01-30T19:25:37;103159.13;;;6.92;100.00
48404;BME280;34202;52.536;6.042;2024-01-30T19:30:38;103168.95;;;6.88;100.00
48404;BME280;34202;52.536;6.042;2024-01-30T19:35:39;103172.91;;;6.82;100.00
48404;BME280;34202;52.536;6.042;2024-01-30T19:40:39;103177.14;;;6.77;100.00
48404;BME280;34202;52.536;6.042;2024-01-30T19:45:40;103176.11;;;6.74;100.00
48404;BME280;34202;52.536;6.042;2024-01-30T19:50:40;103183.82;;;6.73;100.00
48404;BME280;34202;52.536;6.042;2024-01-30T19:55:41;103186.17;;;6.72;100.00
48404;BME280;34202;52.536;6.042;2024-01-30T20:00:41;103200.12;;;6.71;100.00
48404;BME280;34202;52.536;6.042;2024-01-30T20:05:42;103215.81;;;6.70;100.00
48404;BME280;34202;52.536;6.042;2024-01-30T20:10:42;103234.73;;;6.68;100.00
48404;BME280;34202;52.536;6.042;2024-01-30T20:15:43;103239.34;;;6.64;100.00
48404;BME280;34202;52.536;6.042;2024-01-30T20:20:44;103244.16;;;6.58;100.00
48404;BME280;34202;52.536;6.042;2024-01-30T20:25:45;103257.23;;;6.51;100.00
48404;BME280;34202;52.536;6.042;2024-01-30T20:30:46;103256.77;;;6.46;100.00
48404;BME280;34202;52.536;6.042;2024-01-30T20:35:47;103261.64;;;6.41;100.00
48404;BME280;34202;52.536;6.042;2024-01-30T20:40:48;103271.95;;;6.37;100.00
48404;BME280;34202;52.536;6.042;2024-01-30T20:45:48;103282.48;;;6.34;100.00
48404;BME280;34202;52.536;6.042;2024-01-30T20:50:48;103296.26;;;6.30;100.00
48404;BME280;34202;52.536;6.042;2024-01-30T20:55:49;103304.44;;;6.26;100.00
48404;BME280;34202;52.536;6.042;2024-01-30T21:00:49;103316.27;;;6.22;100.00
48404;BME280;34202;52.536;6.042;2024-01-30T21:05:50;103317.91;;;6.17;100.00
48404;BME280;34202;52.536;6.042;2024-01-30T21:10:50;103321.70;;;6.15;100.00
48404;BME280;34202;52.536;6.042;2024-01-30T21:15:51;103324.55;;;6.11;100.00
48404;BME280;34202;52.536;6.042;2024-01-30T21:20:51;103320.65;;;6.07;100.00
48404;BME280;34202;52.536;6.042;2024-01-30T21:25:53;103326.42;;;6.02;100.00
48404;BME280;34202;52.536;6.042;2024-01-30T21:30:53;103321.13;;;5.98;100.00
48404;BME280;34202;52.536;6.042;2024-01-30T21:35:54;103322.23;;;5.94;100.00
48404;BME280;34202;52.536;6.042;2024-01-30T21:40:54;103330.96;;;5.92;100.00
48404;BME280;34202;52.536;6.042;2024-01-30T21:45:55;103335.80;;;5.90;100.00
48404;BME280;34202;52.536;6.042;2024-01-30T21:50:55;103344.63;;;5.88;100.00
48404;BME280;34202;52.536;6.042;2024-01-30T21:55:55;103352.73;;;5.85;100.00
48404;BME280;34202;52.536;6.042;2024-01-30T22:00:56;103362.80;;;5.83;100.00
48404;BME280;34202;52.536;6.042;2024-01-30T22:05:56;103369.19;;;5.80;100.00
48404;BME280;34202;52.536;6.042;2024-01-30T22:10:57;103371.41;;;5.77;100.00
48404;BME280;34202;52.536;6.042;2024-01-30T22:15:57;103373.70;;;5.75;100.00
48404;BME280;34202;52.536;6.042;2024-01-30T22:20:58;103378.02;;;5.70;100.00
48404;BME280;34202;52.536;6.042;2024-01-30T22:25:58;103384.19;;;5.67;100.00
48404;BME280;34202;52.536;6.042;2024-01-30T22:30:58;103384.38;;;5.64;100.00
48404;BME280;34202;52.536;6.042;2024-01-30T22:35:59;103388.29;;;5.63;100.00
48404;BME280;34202;52.536;6.042;2024-01-30T22:40:59;103381.64;;;5.62;100.00
48404;BME280;34202;52.536;6.042;2024-01-30T22:46:00;103384.39;;;5.59;100.00
48404;BME280;34202;52.536;6.042;2024-01-30T22:51:00;103374.71;;;5.57;100.00
48404;BME280;34202;52.536;6.042;2024-01-30T22:56:01;103379.05;;;5.52;100.00
48404;BME280;34202;52.536;6.042;2024-01-30T23:01:02;103380.49;;;5.48;100.00
48404;BME280;34202;52.536;6.042;2024-01-30T23:06:02;103387.73;;;5.45;100.00
48404;BME280;34202;52.536;6.042;2024-01-30T23:11:03;103395.48;;;5.42;100.00
48404;BME280;34202;52.536;6.042;2024-01-30T23:16:04;103403.96;;;5.37;100.00
48404;BME280;34202;52.536;6.042;2024-01-30T23:21:04;103407.88;;;5.34;100.00
48404;BME280;34202;52.536;6.042;2024-01-30T23:26:04;103405.45;;;5.29;100.00
48404;BME280;34202;52.536;6.042;2024-01-30T23:31:05;103413.32;;;5.25;100.00
48404;BME280;34202;52.536;6.042;2024-01-30T23:36:06;103421.89;;;5.21;100.00
48404;BME280;34202;52.536;6.042;2024-01-30T23:41:06;103433.24;;;5.19;100.00
48404;BME280;34202;52.536;6.042;2024-01-30T23:46:07;103440.49;;;5.16;100.00
48404;BME280;34202;52.536;6.042;2024-01-30T23:51:07;103444.20;;;5.15;100.00
48404;BME280;34202;52.536;6.042;2024-01-30T23:56:07;103447.00;;;5.13;100.00
